Time;durP1;ratioP1;P1;durP2;ratioP2;P2;SDS_P1;SDS_P2;PMS_P1;PMS_P2;Temp;Humidity;BMP_temperature;BMP_pressure;BME280_temperature;BME280_humidity;BME280_pressure;Samples;Min_cycle;Max_cycle;Signal;HPM_P1;HPM_P2
2021/03/08 00:01:27;;;;;;;26.77;11.45;;;;;;;2.08;100.00;102381.44;5217853;28;20107;-81
2021/03/08 00:03:57;;;;;;;30.70;13.13;;;;;;;2.03;100.00;102375.53;5209410;28;20472;-81
2021/03/08 00:06:28;;;;;;;31.77;12.13;;;;;;;1.91;100.00;102376.09;5233242;28;20029;-81
2021/03/08 00:08:58;;;;;;;32.75;13.10;;;;;;;1.81;100.00;102365.97;5243036;28;20094;-81
2021/03/08 00:11:29;;;;;;;30.90;12.05;;;;;;;1.70;100.00;102365.59;5225763;28;20032;-81
2021/03/08 00:13:59;;;;;;;29.50;11.80;;;;;;;1.59;100.00;102365.25;5220913;28;20048;-81
2021/03/08 00:16:29;;;;;;;29.30;11.93;;;;;;;1.56;100.00;102375.97;5201256;28;20022;-81
2021/03/08 00:19:00;;;;;;;28.45;11.35;;;;;;;1.50;100.00;102384.16;5212369;28;20029;-81
2021/03/08 00:21:31;;;;;;;30.77;12.20;;;;;;;1.37;100.00;102380.38;5213074;28;20233;-81
2021/03/08 00:24:02;;;;;;;34.80;13.30;;;;;;;1.26;100.00;102381.75;5225602;28;20043;-81
2021/03/08 00:26:33;;;;;;;30.30;13.05;;;;;;;1.18;100.00;102378.56;5238926;28;20033;-81
2021/03/08 00:29:03;;;;;;;31.48;13.27;;;;;;;1.13;100.00;102390.28;5204438;28;20447;-81
2021/03/08 00:31:34;;;;;;;35.03;12.05;;;;;;;1.03;100.00;102381.88;5233095;28;20029;-81
2021/03/08 00:34:04;;;;;;;29.58;11.85;;;;;;;0.90;100.00;102380.69;5216400;28;20036;-81
2021/03/08 00:36:35;;;;;;;33.92;14.05;;;;;;;0.81;100.00;102386.41;5205980;28;20017;-81
2021/03/08 00:39:05;;;;;;;27.40;11.48;;;;;;;0.72;100.00;102382.34;5203899;28;20127;-81
2021/03/08 00:41:36;;;;;;;32.97;12.23;;;;;;;0.67;100.00;102385.19;5212862;28;20029;-81
2021/03/08 00:44:06;;;;;;;33.72;11.82;;;;;;;0.63;100.00;102385.38;5223665;28;20389;-81
2021/03/08 00:46:37;;;;;;;36.13;13.15;;;;;;;0.58;100.00;102385.56;5203144;28;20397;-81
2021/03/08 00:49:08;;;;;;;31.85;12.50;;;;;;;0.52;100.00;102399.91;5219983;28;20476;-81
2021/03/08 00:51:38;;;;;;;32.88;13.25;;;;;;;0.47;100.00;102393.94;5225190;28;20468;-81
2021/03/08 00:54:09;;;;;;;35.50;13.88;;;;;;;0.42;100.00;102395.06;5213485;28;20110;-81
2021/03/08 00:56:39;;;;;;;33.83;13.43;;;;;;;0.38;100.00;102388.19;5232902;28;20373;-80
2021/03/08 00:59:09;;;;;;;34.70;13.52;;;;;;;0.37;100.00;102389.13;5212933;28;20476;-81
2021/03/08 01:01:40;;;;;;;32.97;13.00;;;;;;;0.33;100.00;102384.88;5227437;28;20049;-81
2021/03/08 01:04:10;;;;;;;27.58;11.95;;;;;;;0.29;100.00;102383.28;5220302;28;20041;-81
2021/03/08 01:06:41;;;;;;;35.03;13.05;;;;;;;0.27;100.00;102382.50;5219130;28;20035;-81
2021/03/08 01:09:11;;;;;;;29.88;12.50;;;;;;;0.23;100.00;102379.97;5214485;28;20028;-81
2021/03/08 01:11:42;;;;;;;31.98;12.88;;;;;;;0.20;100.00;102380.13;5230795;28;20025;-81
2021/03/08 01:14:13;;;;;;;36.42;14.27;;;;;;;0.11;100.00;102380.47;5212866;28;20140;-81
2021/03/08 01:16:44;;;;;;;27.98;12.20;;;;;;;0.04;100.00;102376.34;5217890;28;20116;-81
2021/03/08 01:19:15;;;;;;;33.17;13.40;;;;;;;-0.01;100.00;102371.25;5224952;28;20566;-81
2021/03/08 01:21:45;;;;;;;34.10;12.65;;;;;;;-0.04;100.00;102374.03;5231471;28;20033;-81
2021/03/08 01:24:16;;;;;;;38.20;14.25;;;;;;;-0.04;100.00;102374.03;5234554;28;20048;-81
2021/03/08 01:26:47;;;;;;;35.17;12.93;;;;;;;-0.03;100.00;102372.25;5215008;28;20026;-81
2021/03/08 01:29:17;;;;;;;36.83;14.52;;;;;;;-0.02;100.00;102373.97;5226667;28;20021;-81
2021/03/08 01:31:47;;;;;;;35.63;13.05;;;;;;;-0.04;100.00;102358.19;5219498;28;20056;-81
2021/03/08 01:34:20;;;;;;;39.20;13.48;;;;;;;-0.08;100.00;102359.22;5226295;28;20025;-81
2021/03/08 01:36:51;;;;;;;33.85;13.43;;;;;;;-0.11;100.00;102359.34;5213355;28;20029;-81
2021/03/08 01:39:22;;;;;;;41.13;14.95;;;;;;;-0.14;100.00;102358.63;5229708;28;20176;-81
2021/03/08 01:41:53;;;;;;;36.33;14.18;;;;;;;-0.14;100.00;102359.47;5235051;28;20123;-81
2021/03/08 01:44:23;;;;;;;31.50;12.90;;;;;;;-0.14;100.00;102364.75;5221451;28;20086;-81
2021/03/08 01:46:54;;;;;;;31.25;12.98;;;;;;;-0.17;100.00;102358.72;5249995;28;20037;-81
2021/03/08 01:49:25;;;;;;;34.88;13.43;;;;;;;-0.19;100.00;102360.59;5229723;28;20310;-81
2021/03/08 01:51:55;;;;;;;47.38;14.48;;;;;;;-0.20;100.00;102354.47;5213642;28;20029;-81
2021/03/08 01:54:26;;;;;;;35.42;12.77;;;;;;;-0.18;100.00;102354.38;5234733;28;20063;-81
2021/03/08 01:56:57;;;;;;;38.38;13.98;;;;;;;-0.19;100.00;102357.94;5233995;28;20021;-81
2021/03/08 01:59:27;;;;;;;46.78;16.17;;;;;;;-0.21;100.00;102368.53;5226792;28;20477;-81
2021/03/08 02:01:59;;;;;;;42.67;15.40;;;;;;;-0.20;100.00;102356.22;5212940;28;20079;-81
2021/03/08 02:04:29;;;;;;;47.53;17.05;;;;;;;-0.18;100.00;102349.09;5221592;28;20082;-81
2021/03/08 02:07:00;;;;;;;42.17;14.95;;;;;;;-0.16;100.00;102350.75;5229483;28;20025;-81
2021/03/08 02:09:30;;;;;;;43.60;15.77;;;;;;;-0.12;100.00;102344.44;5222408;28;20075;-81
2021/03/08 02:12:13;;;;;;;47.05;17.38;;;;;;;-0.12;100.00;102336.53;5213638;28;20395;-81
2021/03/08 02:14:51;;;;;;;44.42;16.23;;;;;;;-0.11;100.00;102340.88;5198420;28;20026;-81
2021/03/08 02:17:24;;;;;;;45.50;16.15;;;;;;;-0.12;100.00;102343.59;5209619;28;20026;-81
2021/03/08 02:20:06;;;;;;;46.80;17.50;;;;;;;-0.13;100.00;102340.09;5227852;28;20484;-81
2021/03/08 02:22:53;;;;;;;47.72;17.70;;;;;;;-0.17;100.00;102338.50;5235081;28;20033;-81
2021/03/08 02:25:29;;;;;;;42.15;15.32;;;;;;;-0.18;100.00;102336.78;5208775;28;20561;-81
2021/03/08 02:28:19;;;;;;;42.72;15.30;;;;;;;-0.15;100.00;102343.69;5210249;28;20551;-82
2021/03/08 02:30:51;;;;;;;46.40;16.98;;;;;;;-0.17;100.00;102337.63;5217219;28;20374;-81
2021/03/08 02:33:25;;;;;;;47.38;16.63;;;;;;;-0.28;100.00;102333.63;5213418;28;20025;-81
2021/03/08 02:36:00;;;;;;;54.83;18.58;;;;;;;-0.31;100.00;102336.38;5222413;28;20075;-81
2021/03/08 02:38:33;;;;;;;56.17;18.50;;;;;;;-0.30;100.00;102332.00;5220449;28;20176;-81
2021/03/08 02:41:11;;;;;;;48.33;17.73;;;;;;;-0.28;100.00;102336.28;5223960;28;20488;-81
2021/03/08 02:43:45;;;;;;;50.92;18.23;;;;;;;-0.24;100.00;102333.53;5198628;28;20032;-81
2021/03/08 02:46:20;;;;;;;53.25;19.40;;;;;;;-0.21;100.00;102330.75;5228745;28;20084;-81
2021/03/08 02:48:52;;;;;;;57.45;18.50;;;;;;;-0.17;100.00;102335.00;5215249;28;20029;-81
2021/03/08 02:51:26;;;;;;;47.83;17.02;;;;;;;-0.14;100.00;102330.47;5207897;28;20056;-81
2021/03/08 02:54:01;;;;;;;55.58;17.88;;;;;;;-0.12;100.00;102323.34;5208398;28;20021;-80
2021/03/08 02:56:37;;;;;;;54.50;20.00;;;;;;;-0.09;100.00;102325.00;5218459;28;20017;-81
2021/03/08 02:59:12;;;;;;;59.85;19.25;;;;;;;-0.06;100.00;102325.72;5224004;28;20025;-81
2021/03/08 03:01:43;;;;;;;49.83;17.73;;;;;;;-0.01;100.00;102325.53;5223051;28;20108;-80
2021/03/08 03:04:16;;;;;;;52.15;18.52;;;;;;;0.02;100.00;102322.78;5220502;28;20029;-81
2021/03/08 03:06:48;;;;;;;51.63;18.27;;;;;;;0.03;100.00;102321.84;5220889;28;20032;-81
2021/03/08 03:09:22;;;;;;;52.65;18.98;;;;;;;0.06;100.00;102334.09;5218158;28;20026;-80
2021/03/08 03:11:55;;;;;;;51.97;18.63;;;;;;;0.07;100.00;102328.72;5221794;28;20052;-81
2021/03/08 03:14:28;;;;;;;47.95;17.80;;;;;;;0.10;100.00;102319.81;5225423;28;20392;-80
2021/03/08 03:17:02;;;;;;;55.90;19.17;;;;;;;0.08;100.00;102325.16;5213221;28;20021;-81
2021/03/08 03:19:37;;;;;;;59.38;19.70;;;;;;;0.10;100.00;102328.63;5225570;28;20086;-81
2021/03/08 03:22:08;;;;;;;52.10;19.52;;;;;;;0.11;100.00;102330.34;5225741;28;20021;-81
2021/03/08 03:24:40;;;;;;;51.67;18.17;;;;;;;0.09;100.00;102334.78;5214257;28;20037;-81
2021/03/08 03:27:11;;;;;;;48.72;18.15;;;;;;;0.10;100.00;102341.81;5215155;28;20021;-81
2021/03/08 03:29:42;;;;;;;53.95;18.58;;;;;;;0.11;100.00;102337.41;5212309;28;20025;-81
2021/03/08 03:32:14;;;;;;;49.97;18.33;;;;;;;0.10;100.00;102331.25;5214095;28;20028;-81
2021/03/08 03:34:46;;;;;;;50.28;18.02;;;;;;;0.09;100.00;102326.88;5220342;28;20022;-81
2021/03/08 03:37:22;;;;;;;56.88;20.85;;;;;;;0.08;100.00;102330.44;5195750;28;20022;-81
2021/03/08 03:39:53;;;;;;;59.20;18.05;;;;;;;0.10;100.00;102335.66;5225353;28;20463;-81
2021/03/08 03:42:23;;;;;;;55.85;19.10;;;;;;;0.10;100.00;102330.38;5213291;28;20029;-81
2021/03/08 03:44:54;;;;;;;51.03;19.23;;;;;;;0.12;100.00;102334.69;5226729;28;20059;-81
2021/03/08 03:47:24;;;;;;;54.60;19.13;;;;;;;0.16;100.00;102322.22;5211359;28;20124;-81
2021/03/08 03:49:55;;;;;;;64.05;19.30;;;;;;;0.15;100.00;102328.41;5205065;28;20053;-81
2021/03/08 03:52:25;;;;;;;54.03;19.48;;;;;;;0.19;100.00;102327.38;5219853;28;20052;-81
2021/03/08 03:54:56;;;;;;;60.47;19.80;;;;;;;0.22;100.00;102338.66;5206575;28;20533;-81
2021/03/08 03:57:33;;;;;;;66.63;21.45;;;;;;;0.25;100.00;102332.38;5205213;28;20029;-81
2021/03/08 04:00:06;;;;;;;60.28;19.80;;;;;;;0.25;100.00;102320.06;5206461;28;20043;-81
2021/03/08 04:02:43;;;;;;;60.38;19.15;;;;;;;0.27;100.00;102332.34;5212749;28;20039;-81
2021/03/08 04:05:20;;;;;;;62.20;21.38;;;;;;;0.28;100.00;102334.06;5224737;28;20104;-81
2021/03/08 04:07:54;;;;;;;64.10;21.88;;;;;;;0.31;100.00;102334.78;5226327;28;20035;-80
2021/03/08 04:10:27;;;;;;;64.60;22.25;;;;;;;0.32;100.00;102348.84;5219582;28;20032;-81
2021/03/08 04:13:04;;;;;;;62.17;22.25;;;;;;;0.33;100.00;102337.34;5215832;28;20100;-81
2021/03/08 04:15:36;;;;;;;63.35;23.13;;;;;;;0.32;100.00;102333.00;5205594;28;20033;-81
2021/03/08 04:18:10;;;;;;;66.07;20.83;;;;;;;0.32;100.00;102336.50;5206314;28;20100;-81
2021/03/08 04:20:42;;;;;;;68.40;20.92;;;;;;;0.28;100.00;102341.97;5213820;28;20029;-81
2021/03/08 04:23:13;;;;;;;66.13;21.50;;;;;;;0.25;100.00;102349.09;5223394;28;20044;-81
2021/03/08 04:25:46;;;;;;;63.28;22.27;;;;;;;0.25;100.00;102343.81;5198529;28;20071;-81
2021/03/08 04:28:17;;;;;;;64.95;21.90;;;;;;;0.26;100.00;102352.59;5208826;28;20029;-81
2021/03/08 04:30:48;;;;;;;61.80;21.63;;;;;;;0.23;100.00;102350.06;5217571;28;20388;-81
2021/03/08 04:33:19;;;;;;;72.65;23.10;;;;;;;0.22;100.00;102357.13;5217276;28;20021;-81
2021/03/08 04:35:51;;;;;;;70.70;23.80;;;;;;;0.22;100.00;102353.66;5226569;28;20562;-81
2021/03/08 04:38:22;;;;;;;69.93;23.33;;;;;;;0.23;100.00;102358.84;5211814;28;20055;-81
2021/03/08 04:40:53;;;;;;;72.78;23.60;;;;;;;0.24;100.00;102365.84;5241660;28;20056;-81
2021/03/08 04:43:24;;;;;;;68.50;22.55;;;;;;;0.25;100.00;102358.78;5217212;28;20378;-81
2021/03/08 04:45:56;;;;;;;67.43;22.90;;;;;;;0.26;100.00;102357.88;5217439;28;20484;-81
2021/03/08 04:48:28;;;;;;;64.25;22.13;;;;;;;0.27;100.00;102356.94;5205426;28;20116;-81
2021/03/08 04:50:59;;;;;;;81.93;23.55;;;;;;;0.27;100.00;102350.81;5222297;28;20116;-81
2021/03/08 04:53:29;;;;;;;65.38;21.85;;;;;;;0.22;100.00;102354.50;5213308;28;20043;-81
2021/03/08 04:56:01;;;;;;;80.35;24.10;;;;;;;0.19;100.00;102351.13;5224846;28;20111;-81
2021/03/08 04:58:32;;;;;;;78.32;24.67;;;;;;;0.16;100.00;102357.41;5225166;28;20065;-81
2021/03/08 05:01:03;;;;;;;76.72;24.90;;;;;;;0.16;100.00;102352.13;5218555;28;20112;-81
2021/03/08 05:03:36;;;;;;;85.05;25.70;;;;;;;0.18;100.00;102357.31;5233572;28;20104;-81
2021/03/08 05:06:08;;;;;;;76.05;25.75;;;;;;;0.12;100.00;102353.16;5220300;28;20473;-81
2021/03/08 05:08:42;;;;;;;76.13;24.25;;;;;;;0.06;100.00;102353.41;5207052;28;20059;-81
2021/03/08 05:11:13;;;;;;;76.78;24.67;;;;;;;0.02;100.00;102353.59;5214382;28;20033;-81
2021/03/08 05:13:45;;;;;;;83.00;25.50;;;;;;;-0.05;100.00;102353.84;5204329;28;20021;-81
2021/03/08 05:16:17;;;;;;;77.72;26.73;;;;;;;-0.11;100.00;102363.75;5223338;28;20021;-81
2021/03/08 05:18:48;;;;;;;79.97;26.10;;;;;;;-0.19;100.00;102348.25;5223374;28;20021;-81
2021/03/08 05:21:20;;;;;;;78.43;24.52;;;;;;;-0.27;100.00;102361.72;5211464;28;20029;-81
2021/03/08 05:23:51;;;;;;;74.55;25.40;;;;;;;-0.34;100.00;102354.97;5203489;28;20029;-81
2021/03/08 05:26:22;;;;;;;77.22;26.98;;;;;;;-0.39;100.00;102354.31;5219784;28;20027;-80
2021/03/08 05:28:55;;;;;;;75.20;24.50;;;;;;;-0.43;100.00;102350.06;5203749;28;20025;-81
2021/03/08 05:31:31;;;;;;;70.47;24.05;;;;;;;-0.45;100.00;102357.19;5207155;28;20028;-81
2021/03/08 05:34:04;;;;;;;75.95;25.00;;;;;;;-0.49;100.00;102366.13;5172263;28;20029;-80
2021/03/08 05:36:40;;;;;;;73.03;25.08;;;;;;;-0.53;100.00;102354.81;5210728;28;20032;-82
2021/03/08 05:39:13;;;;;;;69.38;22.92;;;;;;;-0.57;100.00;102360.25;5225182;28;20123;-81
2021/03/08 05:41:58;;;;;;;69.55;23.15;;;;;;;-0.60;100.00;102361.25;5224150;28;20484;-81
2021/03/08 05:44:32;;;;;;;79.95;24.73;;;;;;;-0.63;100.00;102369.28;5205672;28;20033;-81
2021/03/08 05:47:02;;;;;;;79.78;26.25;;;;;;;-0.67;100.00;102370.28;5204318;28;20424;-81
2021/03/08 05:49:50;;;;;;;83.55;27.02;;;;;;;-0.70;100.00;102375.69;5210149;28;20025;-81
2021/03/08 05:52:39;;;;;;;82.40;24.25;;;;;;;-0.72;100.00;102374.03;5211113;28;20095;-81
2021/03/08 05:55:31;;;;;;;86.50;27.10;;;;;;;-0.74;100.00;102376.72;5227278;28;20488;-82
2021/03/08 05:58:31;;;;;;;79.50;25.65;;;;;;;-0.74;100.00;102373.22;5214531;28;20117;-82
2021/03/08 06:01:17;;;;;;;74.60;22.73;;;;;;;-0.74;100.00;102378.50;5220187;28;20036;-82
2021/03/08 06:04:09;;;;;;;66.57;21.92;;;;;;;-0.74;100.00;102375.88;5225646;28;20021;-81
2021/03/08 06:06:53;;;;;;;71.25;20.75;;;;;;;-0.73;100.00;102380.22;5215341;28;20120;-82
2021/03/08 06:09:26;;;;;;;66.53;19.33;;;;;;;-0.72;100.00;102382.78;5218806;28;20131;-82
2021/03/08 06:12:04;;;;;;;64.05;20.58;;;;;;;-0.72;100.00;102382.78;5211251;28;20024;-82
2021/03/08 06:14:43;;;;;;;65.35;20.20;;;;;;;-0.72;100.00;102379.28;5227370;28;20033;-82
2021/03/08 06:17:17;;;;;;;67.07;21.60;;;;;;;-0.72;100.00;102382.78;5204912;28;20057;-81
2021/03/08 06:19:48;;;;;;;69.43;21.60;;;;;;;-0.71;100.00;102373.94;5209437;28;20025;-81
2021/03/08 06:22:20;;;;;;;67.65;21.52;;;;;;;-0.73;100.00;102381.06;5218277;28;20059;-81
2021/03/08 06:24:51;;;;;;;64.70;20.48;;;;;;;-0.72;100.00;102376.66;5211490;28;20172;-82
2021/03/08 06:27:23;;;;;;;69.05;23.77;;;;;;;-0.72;100.00;102385.41;5220370;28;20032;-81
2021/03/08 06:29:55;;;;;;;70.32;21.27;;;;;;;-0.70;100.00;102395.88;5229266;28;20106;-81
2021/03/08 06:32:26;;;;;;;73.57;22.73;;;;;;;-0.68;100.00;102394.06;5238662;28;20532;-82
2021/03/08 06:34:56;;;;;;;70.15;22.77;;;;;;;-0.64;100.00;102401.81;5226299;28;20115;-82
2021/03/08 06:37:27;;;;;;;74.28;24.50;;;;;;;-0.61;100.00;102400.84;5214350;28;20491;-81
2021/03/08 06:39:57;;;;;;;70.28;23.05;;;;;;;-0.57;100.00;102400.66;5227623;28;20037;-82
2021/03/08 06:42:28;;;;;;;70.45;23.45;;;;;;;-0.53;100.00;102404.91;5212215;28;20021;-82
2021/03/08 06:44:58;;;;;;;62.33;21.50;;;;;;;-0.49;100.00;102400.41;5232172;28;20039;-82
2021/03/08 06:47:29;;;;;;;60.35;19.42;;;;;;;-0.41;100.00;102400.09;5225548;28;20056;-82
2021/03/08 06:49:59;;;;;;;68.50;22.55;;;;;;;-0.36;100.00;102408.69;5207819;28;20030;-81
2021/03/08 06:52:46;;;;;;;69.47;22.25;;;;;;;-0.30;100.00;102414.63;5211619;28;20102;-81
2021/03/08 06:55:21;;;;;;;66.22;21.13;;;;;;;-0.22;100.00;102418.72;5213163;28;20057;-82
2021/03/08 06:57:51;;;;;;;78.40;22.58;;;;;;;-0.21;100.00;102420.44;5214375;28;20028;-81
2021/03/08 07:00:22;;;;;;;69.03;21.10;;;;;;;-0.18;100.00;102420.34;5229570;28;20026;-82
2021/03/08 07:02:53;;;;;;;55.97;19.90;;;;;;;-0.13;100.00;102428.94;5229113;28;20020;-78
2021/03/08 07:05:23;;;;;;;59.05;20.25;;;;;;;-0.15;100.00;102431.63;5213239;28;20112;-82
2021/03/08 07:07:57;;;;;;;74.53;22.25;;;;;;;-0.14;100.00;102429.84;5210102;28;20033;-83
2021/03/08 07:10:40;;;;;;;67.85;22.65;;;;;;;-0.11;100.00;102430.56;5211913;28;20466;-82
2021/03/08 07:13:11;;;;;;;67.68;22.25;;;;;;;-0.06;100.00;102438.31;5228802;28;20029;-82
2021/03/08 07:15:54;;;;;;;74.78;22.63;;;;;;;-0.01;100.00;102434.56;5224761;28;20018;-82
2021/03/08 07:18:24;;;;;;;65.40;20.27;;;;;;;0.05;100.00;102438.78;5207924;28;20385;-82
2021/03/08 07:21:15;;;;;;;70.07;23.00;;;;;;;0.09;100.00;102436.84;5208095;28;20021;-82
2021/03/08 07:23:49;;;;;;;61.72;21.10;;;;;;;0.08;100.00;102435.16;5208174;28;20022;-82
2021/03/08 07:26:22;;;;;;;74.97;22.15;;;;;;;0.09;100.00;102442.13;5207549;28;20143;-82
2021/03/08 07:29:06;;;;;;;74.38;24.25;;;;;;;0.16;100.00;102436.56;5216817;28;20404;-81
2021/03/08 07:31:41;;;;;;;74.72;23.52;;;;;;;0.28;100.00;102443.13;5209227;28;20370;-82
2021/03/08 07:34:13;;;;;;;62.08;22.23;;;;;;;0.39;100.00;102446.19;5205386;28;20049;-82
2021/03/08 07:36:55;;;;;;;68.88;23.42;;;;;;;0.50;100.00;102440.47;5227108;28;20485;-82
2021/03/08 07:39:26;;;;;;;77.75;26.08;;;;;;;0.64;100.00;102437.28;5223624;28;20234;-80
2021/03/08 07:42:00;;;;;;;66.82;23.58;;;;;;;0.78;100.00;102440.22;5221352;28;20040;-79
2021/03/08 07:44:32;;;;;;;70.83;24.33;;;;;;;0.90;100.00;102439.69;5223556;28;20021;-82
2021/03/08 07:47:17;;;;;;;77.25;24.33;;;;;;;1.00;100.00;102440.16;5213659;28;20036;-83
2021/03/08 07:49:47;;;;;;;60.95;21.90;;;;;;;1.15;100.00;102441.28;5226278;28;20049;-82
2021/03/08 07:52:18;;;;;;;71.05;23.70;;;;;;;1.20;100.00;102434.84;5223946;28;20150;-81
2021/03/08 07:55:02;;;;;;;66.90;24.80;;;;;;;1.31;100.00;102441.50;5218391;28;20018;-82
2021/03/08 07:57:34;;;;;;;69.45;23.88;;;;;;;1.41;100.00;102434.88;5207733;28;20059;-82
2021/03/08 08:00:06;;;;;;;69.30;24.63;;;;;;;1.49;100.00;102438.00;5207471;28;20025;-83
2021/03/08 08:02:36;;;;;;;64.90;23.63;;;;;;;1.64;100.00;102437.31;5226955;28;20033;-81
2021/03/08 08:05:07;;;;;;;68.97;25.40;;;;;;;1.74;100.00;102443.03;5228231;28;20017;-79
2021/03/08 08:07:39;;;;;;;74.78;25.50;;;;;;;1.78;100.00;102442.84;5216255;28;20029;-82
2021/03/08 08:10:15;;;;;;;72.80;24.23;;;;;;;1.89;100.00;102437.03;5242816;28;20570;-82
2021/03/08 08:12:47;;;;;;;70.32;24.60;;;;;;;2.08;100.00;102440.56;5229571;28;20025;-82
2021/03/08 08:15:18;;;;;;;68.47;24.85;;;;;;;2.14;100.00;102441.19;5207145;28;20040;-82
2021/03/08 08:17:51;;;;;;;74.95;25.90;;;;;;;2.18;100.00;102443.63;5207240;28;20014;-82
2021/03/08 08:20:23;;;;;;;79.95;27.08;;;;;;;2.28;100.00;102439.59;5220038;28;20500;-82
2021/03/08 08:22:58;;;;;;;84.18;28.15;;;;;;;2.39;100.00;102436.44;5192937;28;20041;-82
2021/03/08 08:25:30;;;;;;;73.63;25.97;;;;;;;2.56;100.00;102439.13;5214339;28;20481;-82
2021/03/08 08:28:01;;;;;;;82.82;29.20;;;;;;;2.64;100.00;102433.44;5211561;28;20433;-82
2021/03/08 08:30:31;;;;;;;78.28;28.13;;;;;;;2.76;100.00;102437.25;5206057;28;20101;-82
2021/03/08 08:33:02;;;;;;;73.38;27.20;;;;;;;2.87;100.00;102432.28;5226102;28;20384;-82
2021/03/08 08:35:34;;;;;;;88.15;31.23;;;;;;;2.98;100.00;102440.53;5226856;28;20036;-83
2021/03/08 08:38:07;;;;;;;78.32;29.40;;;;;;;3.10;100.00;102439.03;5243107;28;20017;-82
2021/03/08 08:40:39;;;;;;;86.15;30.20;;;;;;;3.25;100.00;102437.41;5213476;28;20484;-82
2021/03/08 08:43:14;;;;;;;90.05;31.00;;;;;;;3.50;100.00;102435.16;5219163;28;20029;-82
2021/03/08 08:45:48;;;;;;;72.00;28.30;;;;;;;3.58;100.00;102440.06;5221084;28;20044;-82
2021/03/08 08:48:20;;;;;;;76.63;27.95;;;;;;;3.71;100.00;102433.16;5225712;28;20021;-82
2021/03/08 08:50:52;;;;;;;85.97;29.02;;;;;;;3.97;100.00;102438.84;5226833;28;20057;-82
2021/03/08 08:53:30;;;;;;;83.97;29.48;;;;;;;4.07;100.00;102438.25;5226876;28;20028;-82
2021/03/08 08:56:02;;;;;;;78.57;26.92;;;;;;;4.24;100.00;102439.97;5207195;28;20033;-82
2021/03/08 08:58:43;;;;;;;75.85;28.40;;;;;;;4.50;100.00;102435.81;5221418;28;20021;-82
2021/03/08 09:01:15;;;;;;;75.47;28.67;;;;;;;4.56;100.00;102431.94;5193281;28;20025;-82
2021/03/08 09:03:56;;;;;;;77.93;28.55;;;;;;;4.61;100.00;102429.88;5222058;28;20040;-82
2021/03/08 09:06:41;;;;;;;75.32;27.67;;;;;;;4.72;100.00;102437.22;5225970;28;20028;-83
2021/03/08 09:09:13;;;;;;;72.43;28.08;;;;;;;4.85;100.00;102425.78;5198835;28;20449;-82
2021/03/08 09:11:46;;;;;;;86.28;28.63;;;;;;;5.00;100.00;102425.81;5211935;28;20025;-82
2021/03/08 09:14:29;;;;;;;74.15;27.20;;;;;;;5.26;100.00;102429.56;5217271;28;20401;-83
2021/03/08 09:17:07;;;;;;;75.43;27.92;;;;;;;5.34;100.00;102424.63;5210400;28;20021;-82
2021/03/08 09:19:38;;;;;;;74.10;28.25;;;;;;;5.41;100.00;102428.63;5212997;28;20025;-83
2021/03/08 09:22:37;;;;;;;71.32;27.55;;;;;;;5.60;100.00;102421.22;5225093;28;20049;-82
2021/03/08 09:25:07;;;;;;;71.25;27.08;;;;;;;5.67;100.00;102421.69;5207092;28;20104;-83
2021/03/08 09:27:40;;;;;;;76.07;26.85;;;;;;;5.74;100.00;102430.16;5205165;28;20113;-82
2021/03/08 09:30:19;;;;;;;64.43;25.73;;;;;;;5.91;100.00;102417.50;5225294;28;20398;-82
2021/03/08 09:33:00;;;;;;;75.22;28.85;;;;;;;5.81;100.00;102427.00;5219245;28;20025;-83
2021/03/08 09:35:40;;;;;;;67.22;26.85;;;;;;;6.03;100.00;102423.03;5220214;28;20063;-82
2021/03/08 09:38:15;;;;;;;96.03;27.20;;;;;;;6.13;100.00;102419.66;5215221;28;20079;-83
2021/03/08 09:40:48;;;;;;;61.13;24.17;;;;;;;5.91;100.00;102419.28;5215405;28;20439;-83
2021/03/08 09:43:28;;;;;;;67.22;25.75;;;;;;;6.07;100.00;102416.53;5215624;28;20112;-83
2021/03/08 09:46:01;;;;;;;63.10;25.48;;;;;;;6.32;100.00;102416.63;5213291;28;20029;-83
2021/03/08 09:48:35;;;;;;;66.22;26.00;;;;;;;6.55;100.00;102417.81;5212292;28;20025;-83
2021/03/08 09:51:12;;;;;;;62.08;25.73;;;;;;;6.55;100.00;102419.63;5218847;28;20125;-83
2021/03/08 09:53:47;;;;;;;72.07;27.52;;;;;;;6.51;100.00;102413.63;5206322;28;20033;-83
2021/03/08 09:56:19;;;;;;;64.72;25.25;;;;;;;6.62;100.00;102410.25;5242445;28;20029;-83
2021/03/08 09:59:03;;;;;;;63.47;24.50;;;;;;;6.69;100.00;102415.06;5225428;28;20065;-82
2021/03/08 10:01:34;;;;;;;60.45;24.33;;;;;;;6.71;100.00;102418.47;5214792;28;20499;-83
2021/03/08 10:04:05;;;;;;;61.53;25.63;;;;;;;6.78;100.00;102421.59;5220819;28;20036;-83
2021/03/08 10:06:35;;;;;;;64.60;26.33;;;;;;;6.84;100.00;102418.53;5235308;28;20032;-83
2021/03/08 10:11:46;;;;;;;69.15;26.02;;;;;;;6.94;100.00;102414.28;5709455;23;20050;-86
2021/03/08 10:14:24;;;;;;;62.25;24.70;;;;;;;7.05;96.70;102410.00;5137933;28;20082;-86
2021/03/08 10:17:13;;;;;;;66.25;24.73;;;;;;;7.35;100.00;102407.88;5144929;28;20071;-87
2021/03/08 10:20:04;;;;;;;59.03;23.85;;;;;;;7.19;98.94;102412.59;5147436;28;20018;-85
2021/03/08 10:22:43;;;;;;;60.38;23.13;;;;;;;7.43;96.29;102408.22;5150885;28;20041;-86
2021/03/08 10:25:19;;;;;;;48.70;19.33;;;;;;;7.23;87.36;102414.09;5146244;28;20029;-85
2021/03/08 10:27:51;;;;;;;42.78;16.85;;;;;;;7.20;79.92;102408.94;5161704;28;20022;-85
2021/03/08 10:30:28;;;;;;;41.53;16.10;;;;;;;7.43;72.55;102404.66;5142473;28;20041;-85
2021/03/08 10:33:02;;;;;;;46.63;21.80;;;;;;;7.65;72.02;102414.69;5141108;28;20209;-85
2021/03/08 10:35:53;;;;;;;42.75;17.42;;;;;;;7.58;66.85;102403.59;5142301;28;20026;-85
2021/03/08 10:38:33;;;;;;;43.05;17.35;;;;;;;7.64;72.32;102413.00;5143130;28;20025;-85
2021/03/08 10:41:05;;;;;;;46.22;19.92;;;;;;;7.73;70.36;102417.66;5158882;28;20134;-86
2021/03/08 10:43:35;;;;;;;50.90;24.95;;;;;;;7.80;79.04;102402.91;5142725;28;20031;-85
2021/03/08 10:46:06;;;;;;;40.78;17.45;;;;;;;7.92;75.71;102406.50;5140997;28;20034;-86
2021/03/08 10:49:03;;;;;;;37.80;15.63;;;;;;;8.12;69.26;102397.03;5144470;28;20027;-85
2021/03/08 10:51:38;;;;;;;45.33;16.80;;;;;;;8.41;67.23;102405.63;5164021;28;20038;-85
2021/03/08 10:54:10;;;;;;;39.37;16.23;;;;;;;8.54;70.09;102407.28;5148605;28;20177;-85
2021/03/08 10:56:46;;;;;;;38.83;17.13;;;;;;;8.53;61.80;102407.38;5145004;28;20019;-85
2021/03/08 10:59:28;;;;;;;49.60;20.17;;;;;;;8.43;66.01;102409.03;5146831;28;20061;-85
2021/03/08 11:02:38;;;;;;;47.78;16.77;;;;;;;8.39;70.65;102408.44;5148773;28;20038;-85
2021/03/08 11:05:18;;;;;;;44.35;18.40;;;;;;;8.40;74.54;102399.44;5140587;28;20046;-85
2021/03/08 11:08:18;;;;;;;39.92;16.35;;;;;;;8.70;61.01;102403.44;5138254;28;20019;-85
2021/03/08 11:10:55;;;;;;;42.55;17.48;;;;;;;8.68;65.49;102408.03;5149034;28;20560;-85
2021/03/08 11:13:34;;;;;;;47.03;18.50;;;;;;;8.88;63.57;102396.66;5151899;28;20026;-85
2021/03/08 11:16:26;;;;;;;42.60;18.33;;;;;;;8.85;60.96;102388.91;5165182;28;20042;-85
2021/03/08 11:19:41;;;;;;;36.00;14.27;;;;;;;9.04;60.78;102391.88;5146141;28;20027;-84
2021/03/08 11:23:04;;;;;;;42.08;16.50;;;;;;;9.03;58.87;102400.84;5142018;28;20038;-85
2021/03/08 11:25:43;;;;;;;31.40;12.00;;;;;;;9.05;56.20;102390.88;5149100;28;20037;-85
2021/03/08 11:28:18;;;;;;;26.13;12.13;;;;;;;9.24;57.47;102392.16;5148317;28;20509;-84
2021/03/08 11:30:51;;;;;;;32.28;13.63;;;;;;;9.18;55.48;102400.63;5142129;28;20062;-84
2021/03/08 11:33:23;;;;;;;33.38;12.73;;;;;;;9.13;53.92;102390.28;5137748;28;20026;-89
2021/03/08 11:35:58;;;;;;;38.00;14.15;;;;;;;8.93;55.36;102386.47;5147263;28;20030;-85
2021/03/08 11:38:29;;;;;;;34.55;14.32;;;;;;;8.94;56.12;102385.53;5148306;28;20473;-84
2021/03/08 11:41:00;;;;;;;36.38;15.55;;;;;;;8.95;62.35;102384.53;5149230;28;20182;-84
2021/03/08 11:43:32;;;;;;;43.00;16.33;;;;;;;9.16;63.32;102383.84;5150378;28;20062;-84